Time;durP1;ratioP1;P1;durP2;ratioP2;P2;SDS_P1;SDS_P2;PMS_P1;PMS_P2;Temp;Humidity;BMP_temperature;BMP_pressure;BME280_temperature;BME280_humidity;BME280_pressure;Samples;Min_cycle;Max_cycle;Signal;HPM_P1;HPM_P2
2023/08/28 00:01:20;;;;;;;;;;;16.50;99.90;;;;;;5107820;28;19955;-68
2023/08/28 00:03:47;;;;;;;;;;;16.60;99.90;;;;;;5108965;28;19911;-68
2023/08/28 00:06:15;;;;;;;;;;;16.80;99.90;;;;;;5111862;28;19922;-71
2023/08/28 00:08:41;;;;;;;;;;;16.90;99.90;;;;;;5111984;28;19915;-68
2023/08/28 00:11:08;;;;;;;;;;;17.00;99.90;;;;;;5111576;28;19912;-66
2023/08/28 00:13:34;;;;;;;;;;;17.20;99.90;;;;;;5111817;28;20356;-66
2023/08/28 00:16:02;;;;;;;;;;;17.30;99.90;;;;;;5112388;28;19908;-68
2023/08/28 00:18:28;;;;;;;;;;;17.50;99.90;;;;;;5112401;28;20332;-67
2023/08/28 00:20:55;;;;;;;;;;;17.60;99.90;;;;;;5111569;28;19920;-70
2023/08/28 00:23:22;;;;;;;;;;;17.70;99.90;;;;;;5111802;28;19915;-68
2023/08/28 00:25:49;;;;;;;;;;;17.90;99.90;;;;;;5111366;28;19911;-67
2023/08/28 00:28:15;;;;;;;;;;;18.10;99.90;;;;;;5111239;28;20252;-67
2023/08/28 00:30:42;;;;;;;;;;;18.40;99.90;;;;;;5106727;28;19912;-69
2023/08/28 00:33:09;;;;;;;;;;;18.50;99.90;;;;;;5073230;28;19908;-69
2023/08/28 00:35:36;;;;;;;;;;;18.80;99.90;;;;;;5107957;28;19919;-71
2023/08/28 00:38:02;;;;;;;;;;;18.80;99.90;;;;;;5096429;28;19999;-71
2023/08/28 00:40:29;;;;;;;;;;;18.80;99.90;;;;;;5110445;28;19919;-71
2023/08/28 00:42:56;;;;;;;;;;;18.90;99.90;;;;;;5114080;28;20385;-71
2023/08/28 00:45:23;;;;;;;;;;;19.00;99.90;;;;;;5113153;28;19916;-72
2023/08/28 00:47:49;;;;;;;;;;;19.10;99.90;;;;;;5101659;28;20010;-70
2023/08/28 00:50:16;;;;;;;;;;;19.20;99.90;;;;;;5114898;28;19912;-67
2023/08/28 00:52:43;;;;;;;;;;;19.30;99.90;;;;;;5079677;28;19969;-68
2023/08/28 00:55:09;;;;;;;;;;;19.40;99.90;;;;;;5104373;28;20448;-66
2023/08/28 00:57:36;;;;;;;;;;;19.50;99.90;;;;;;5110431;28;20375;-69
2023/08/28 01:00:05;;;;;;;;;;;19.60;99.90;;;;;;5110706;28;19922;-70
2023/08/28 01:02:32;;;;;;;;;;;19.70;99.90;;;;;;5110221;28;19934;-70
2023/08/28 01:04:59;;;;;;;;;;;19.80;99.90;;;;;;5106417;28;19916;-68
2023/08/28 01:07:26;;;;;;;;;;;19.90;99.90;;;;;;5103775;28;19912;-67
2023/08/28 01:09:53;;;;;;;;;;;20.00;99.90;;;;;;5114607;28;20340;-69
2023/08/28 01:12:19;;;;;;;;;;;20.00;99.90;;;;;;5104103;28;19919;-67
2023/08/28 01:15:06;;;;;;;;;;;20.10;99.90;;;;;;5099978;28;20439;-67
2023/08/28 01:17:33;;;;;;;;;;;20.10;98.60;;;;;;5114848;28;19912;-69
2023/08/28 01:20:00;;;;;;;;;;;20.10;98.10;;;;;;5114940;28;19940;-69
2023/08/28 01:22:32;;;;;;;;;;;20.10;97.00;;;;;;5109537;28;19923;-65
2023/08/28 01:25:12;;;;;;;;;;;20.00;96.50;;;;;;5114907;28;19951;-70
2023/08/28 01:27:39;;;;;;;;;;;20.10;96.80;;;;;;5114367;28;20346;-69
2023/08/28 01:30:12;;;;;;;;;;;20.20;97.40;;;;;;5114440;28;19959;-69
2023/08/28 01:32:40;;;;;;;;;;;20.40;97.50;;;;;;5109890;28;19915;-69
2023/08/28 01:35:11;;;;;;;;;;;20.50;97.10;;;;;;5113175;28;19908;-71
2023/08/28 01:37:41;;;;;;;;;;;20.50;96.10;;;;;;5106811;28;19918;-68
2023/08/28 01:40:09;;;;;;;;;;;20.50;96.40;;;;;;5113788;28;19945;-71
2023/08/28 01:42:36;;;;;;;;;;;20.70;95.50;;;;;;5112099;28;20295;-69
2023/08/28 01:45:03;;;;;;;;;;;20.90;95.70;;;;;;5110304;28;19912;-69
2023/08/28 01:47:30;;;;;;;;;;;21.20;95.50;;;;;;5108182;28;19911;-69
2023/08/28 01:49:58;;;;;;;;;;;21.50;94.30;;;;;;5114445;28;19908;-69
2023/08/28 01:52:24;;;;;;;;;;;21.60;93.80;;;;;;5104499;28;19912;-72
2023/08/28 01:54:51;;;;;;;;;;;22.00;93.80;;;;;;5097436;28;19919;-71
2023/08/28 01:57:18;;;;;;;;;;;22.30;92.90;;;;;;5104203;28;20352;-70
2023/08/28 01:59:44;;;;;;;;;;;22.50;92.40;;;;;;5108931;28;19961;-68
2023/08/28 02:02:11;;;;;;;;;;;22.50;92.00;;;;;;5103844;28;19916;-71
2023/08/28 02:04:37;;;;;;;;;;;22.70;92.30;;;;;;5098597;28;20432;-71
2023/08/28 02:07:04;;;;;;;;;;;22.60;91.20;;;;;;5104638;28;19912;-70
2023/08/28 02:09:31;;;;;;;;;;;22.70;91.30;;;;;;5101890;28;19911;-70
2023/08/28 02:11:57;;;;;;;;;;;22.90;91.10;;;;;;5103895;28;20283;-70
2023/08/28 02:14:24;;;;;;;;;;;23.00;91.10;;;;;;5105214;28;19912;-69
2023/08/28 02:16:50;;;;;;;;;;;23.20;91.00;;;;;;5104220;28;19914;-73
2023/08/28 02:19:17;;;;;;;;;;;23.40;90.80;;;;;;5114203;28;19912;-71
2023/08/28 02:21:44;;;;;;;;;;;23.20;91.20;;;;;;5112891;28;19916;-71
2023/08/28 02:24:10;;;;;;;;;;;23.00;91.90;;;;;;5113497;28;19915;-65
2023/08/28 02:26:37;;;;;;;;;;;22.90;91.60;;;;;;5112854;28;19908;-68
2023/08/28 02:29:03;;;;;;;;;;;22.90;92.20;;;;;;5106878;28;20292;-68
2023/08/28 02:31:30;;;;;;;;;;;23.00;91.90;;;;;;5105553;28;19935;-69
2023/08/28 02:33:57;;;;;;;;;;;23.20;92.30;;;;;;5113313;28;20279;-73
2023/08/28 02:36:23;;;;;;;;;;;23.30;91.80;;;;;;5104770;28;19912;-68
2023/08/28 02:38:50;;;;;;;;;;;23.60;91.60;;;;;;5095185;28;19995;-73
2023/08/28 02:41:16;;;;;;;;;;;23.60;90.90;;;;;;5112994;28;20295;-68
2023/08/28 02:43:43;;;;;;;;;;;23.40;92.00;;;;;;5113233;28;19911;-71
2023/08/28 02:46:10;;;;;;;;;;;23.20;92.90;;;;;;5102165;28;20475;-71
2023/08/28 02:48:36;;;;;;;;;;;23.20;92.90;;;;;;5091198;28;19908;-69
2023/08/28 02:51:03;;;;;;;;;;;23.30;93.50;;;;;;5099767;28;19908;-69
2023/08/28 02:53:30;;;;;;;;;;;23.40;93.20;;;;;;5113514;28;19915;-69
2023/08/28 02:56:14;;;;;;;;;;;23.60;92.30;;;;;;5113365;28;19908;-68
2023/08/28 02:58:41;;;;;;;;;;;23.50;92.90;;;;;;5094856;28;20311;-70
2023/08/28 03:01:07;;;;;;;;;;;23.20;92.50;;;;;;5104186;28;19916;-67
2023/08/28 03:03:34;;;;;;;;;;;23.40;92.70;;;;;;5091062;28;20369;-70
2023/08/28 03:06:01;;;;;;;;;;;23.60;92.90;;;;;;5090908;28;19908;-68
2023/08/28 03:08:31;;;;;;;;;;;23.70;92.40;;;;;;5090478;28;19912;-68
2023/08/28 03:10:57;;;;;;;;;;;23.80;92.20;;;;;;5072425;28;20316;-67
2023/08/28 03:13:24;;;;;;;;;;;23.50;92.90;;;;;;5090905;28;19953;-70
2023/08/28 03:15:50;;;;;;;;;;;23.80;92.70;;;;;;5090745;28;19912;-68
2023/08/28 03:18:18;;;;;;;;;;;24.30;93.00;;;;;;5091860;28;20349;-66
2023/08/28 03:20:45;;;;;;;;;;;25.60;91.40;;;;;;5092101;28;19916;-70
2023/08/28 03:23:11;;;;;;;;;;;26.90;90.50;;;;;;5094106;28;20317;-67
2023/08/28 03:25:38;;;;;;;;;;;28.90;85.00;;;;;;5113002;28;19950;-69
2023/08/28 03:28:07;;;;;;;;;;;30.40;82.60;;;;;;5112634;28;19950;-69
2023/08/28 03:30:34;;;;;;;;;;;31.50;77.70;;;;;;5111822;28;19915;-69
2023/08/28 03:33:01;;;;;;;;;;;31.70;77.00;;;;;;5112519;28;19916;-69
2023/08/28 03:35:28;;;;;;;;;;;31.50;74.70;;;;;;5113064;28;19930;-71
2023/08/28 03:37:54;;;;;;;;;;;31.70;74.10;;;;;;5112914;28;19911;-68
2023/08/28 03:40:21;;;;;;;;;;;31.10;73.10;;;;;;5093663;28;19916;-70
2023/08/28 03:42:48;;;;;;;;;;;29.40;75.50;;;;;;5094524;28;19952;-70
2023/08/28 03:45:14;;;;;;;;;;;28.20;77.30;;;;;;5112144;28;19916;-69
2023/08/28 03:47:41;;;;;;;;;;;27.40;78.30;;;;;;5112809;28;19908;-73
2023/08/28 03:50:08;;;;;;;;;;;26.70;79.00;;;;;;5111967;28;19908;-70
2023/08/28 03:52:34;;;;;;;;;;;26.70;80.40;;;;;;5108424;28;20388;-71
2023/08/28 03:55:01;;;;;;;;;;;26.60;79.40;;;;;;5112645;28;19914;-68
2023/08/28 03:57:28;;;;;;;;;;;27.00;78.60;;;;;;5112296;28;19966;-70
2023/08/28 03:59:56;;;;;;;;;;;27.50;77.20;;;;;;5111418;28;19908;-68
2023/08/28 04:02:22;;;;;;;;;;;27.20;76.30;;;;;;5093770;28;20335;-66
2023/08/28 04:04:50;;;;;;;;;;;27.10;76.60;;;;;;5107663;28;19908;-72
2023/08/28 04:07:23;;;;;;;;;;;26.90;78.40;;;;;;5092867;28;19912;-68
2023/08/28 04:09:49;;;;;;;;;;;27.50;75.30;;;;;;5111706;28;19915;-70
2023/08/28 04:12:16;;;;;;;;;;;28.10;75.60;;;;;;5108456;28;19914;-69
2023/08/28 04:14:43;;;;;;;;;;;27.70;75.50;;;;;;5116662;28;19939;-69
2023/08/28 04:17:09;;;;;;;;;;;27.90;76.50;;;;;;5116396;28;20012;-68
2023/08/28 04:19:36;;;;;;;;;;;27.90;76.30;;;;;;5116332;28;20012;-67
2023/08/28 04:22:03;;;;;;;;;;;28.50;76.60;;;;;;5115850;28;20011;-68
2023/08/28 04:24:29;;;;;;;;;;;28.40;74.70;;;;;;5112193;28;19912;-72
2023/08/28 04:26:56;;;;;;;;;;;29.00;76.00;;;;;;5096260;28;19911;-71
2023/08/28 04:29:23;;;;;;;;;;;30.30;72.90;;;;;;5107407;28;19912;-70
2023/08/28 04:31:50;;;;;;;;;;;31.40;71.30;;;;;;5106133;28;19965;-71
2023/08/28 04:34:16;;;;;;;;;;;31.00;69.70;;;;;;5100556;28;19908;-68
2023/08/28 04:36:43;;;;;;;;;;;30.40;70.40;;;;;;5096441;28;20393;-67
2023/08/28 04:39:09;;;;;;;;;;;29.80;70.50;;;;;;5116277;28;19945;-68
2023/08/28 04:41:36;;;;;;;;;;;29.00;69.80;;;;;;5112937;28;19915;-68
2023/08/28 04:44:03;;;;;;;;;;;28.40;72.30;;;;;;5116358;28;20421;-69
2023/08/28 04:46:29;;;;;;;;;;;28.30;71.90;;;;;;5115761;28;19976;-69
2023/08/28 04:48:56;;;;;;;;;;;28.10;70.20;;;;;;5116226;28;20385;-67
2023/08/28 04:51:23;;;;;;;;;;;28.40;70.30;;;;;;5107803;28;19915;-69
2023/08/28 04:53:49;;;;;;;;;;;28.60;69.00;;;;;;5116109;28;19908;-72
2023/08/28 04:56:16;;;;;;;;;;;28.90;69.50;;;;;;5115693;28;19912;-67
2023/08/28 04:58:42;;;;;;;;;;;29.60;67.60;;;;;;5111552;28;19915;-69
2023/08/28 05:01:09;;;;;;;;;;;29.50;68.40;;;;;;5104470;28;19930;-70
2023/08/28 05:03:36;;;;;;;;;;;30.10;68.80;;;;;;5115224;28;19915;-69
2023/08/28 05:06:02;;;;;;;;;;;31.60;66.40;;;;;;5115002;28;20272;-70
2023/08/28 05:08:29;;;;;;;;;;;32.60;64.80;;;;;;5115636;28;19916;-69
2023/08/28 05:10:56;;;;;;;;;;;32.30;64.60;;;;;;5109157;28;19935;-70
2023/08/28 05:13:22;;;;;;;;;;;31.40;65.50;;;;;;5095034;28;19908;-70
2023/08/28 05:15:49;;;;;;;;;;;31.80;64.70;;;;;;5095062;28;19912;-68
2023/08/28 05:18:16;;;;;;;;;;;32.20;65.00;;;;;;5109571;28;19927;-70
2023/08/28 05:20:43;;;;;;;;;;;31.00;65.90;;;;;;5111718;28;19966;-73
2023/08/28 05:23:10;;;;;;;;;;;31.40;66.50;;;;;;5113004;28;19908;-73
2023/08/28 05:25:37;;;;;;;;;;;31.90;66.40;;;;;;5113212;28;19991;-72
2023/08/28 05:28:03;;;;;;;;;;;32.50;64.20;;;;;;5114679;28;19919;-72
2023/08/28 05:30:30;;;;;;;;;;;31.70;65.10;;;;;;5101264;28;19912;-72
2023/08/28 05:32:57;;;;;;;;;;;31.40;65.00;;;;;;5094447;28;20364;-69
2023/08/28 05:35:23;;;;;;;;;;;30.70;65.70;;;;;;5104103;28;19961;-72
2023/08/28 05:37:50;;;;;;;;;;;30.70;66.90;;;;;;5114699;28;19991;-71
2023/08/28 05:40:17;;;;;;;;;;;30.50;66.60;;;;;;5113950;28;19919;-71
2023/08/28 05:42:44;;;;;;;;;;;31.60;65.60;;;;;;5110449;28;19969;-68
2023/08/28 05:45:10;;;;;;;;;;;32.20;64.00;;;;;;5096027;28;19917;-72
2023/08/28 05:47:37;;;;;;;;;;;32.30;64.70;;;;;;5094358;28;19916;-70
2023/08/28 05:50:04;;;;;;;;;;;32.20;63.50;;;;;;5112707;28;20431;-69
2023/08/28 05:52:31;;;;;;;;;;;32.30;64.50;;;;;;5101857;28;19935;-68
2023/08/28 05:54:57;;;;;;;;;;;32.50;63.90;;;;;;5096527;28;19962;-69
2023/08/28 05:57:24;;;;;;;;;;;31.70;64.50;;;;;;5114658;28;19908;-68
2023/08/28 05:59:51;;;;;;;;;;;30.00;66.10;;;;;;5096131;28;19915;-70
2023/08/28 06:02:18;;;;;;;;;;;28.50;68.70;;;;;;5096474;28;19918;-71
2023/08/28 06:04:47;;;;;;;;;;;27.10;72.10;;;;;;5093664;28;19908;-69
2023/08/28 06:07:13;;;;;;;;;;;26.00;73.60;;;;;;5107878;28;19942;-68
2023/08/28 06:09:42;;;;;;;;;;;25.10;75.00;;;;;;5111744;28;20272;-70
2023/08/28 06:12:08;;;;;;;;;;;24.60;76.40;;;;;;5106619;28;19916;-68
2023/08/28 06:14:36;;;;;;;;;;;24.30;77.30;;;;;;5095886;27;19912;-68
2023/08/28 06:17:05;;;;;;;;;;;23.50;79.50;;;;;;5093534;28;20419;-66
2023/08/28 06:19:32;;;;;;;;;;;23.00;80.90;;;;;;5101067;27;20284;-67
2023/08/28 06:22:07;;;;;;;;;;;22.70;83.20;;;;;;5106940;28;19916;-67
2023/08/28 06:24:34;;;;;;;;;;;22.40;85.20;;;;;;5093007;28;20280;-69
2023/08/28 06:27:01;;;;;;;;;;;22.20;86.70;;;;;;5099844;28;19912;-71
2023/08/28 06:29:27;;;;;;;;;;;22.00;86.90;;;;;;5096632;28;20045;-68
2023/08/28 06:31:54;;;;;;;;;;;22.00;88.40;;;;;;5098484;28;20007;-66
2023/08/28 06:34:21;;;;;;;;;;;21.60;88.70;;;;;;5096963;27;21252;-67
2023/08/28 06:36:49;;;;;;;;;;;21.40;89.90;;;;;;5105951;28;19923;-68
2023/08/28 06:39:16;;;;;;;;;;;21.30;90.60;;;;;;5104069;28;19916;-68
2023/08/28 06:41:42;;;;;;;;;;;21.20;91.10;;;;;;5104600;28;20388;-69
2023/08/28 06:44:09;;;;;;;;;;;21.00;91.50;;;;;;5093534;27;20383;-69
2023/08/28 06:46:37;;;;;;;;;;;20.80;91.90;;;;;;5102857;28;20027;-71
2023/08/28 06:49:04;;;;;;;;;;;20.40;92.20;;;;;;5094690;28;19961;-69
2023/08/28 06:51:30;;;;;;;;;;;20.20;93.10;;;;;;5101199;27;19912;-67
2023/08/28 06:53:57;;;;;;;;;;;19.90;93.80;;;;;;5103830;28;19915;-67
2023/08/28 06:56:24;;;;;;;;;;;19.90;94.10;;;;;;5107426;27;19912;-69
2023/08/28 06:58:50;;;;;;;;;;;19.70;94.10;;;;;;5104654;28;19919;-70
2023/08/28 07:01:17;;;;;;;;;;;19.50;93.80;;;;;;5107798;28;20343;-70
2023/08/28 07:03:43;;;;;;;;;;;19.40;94.40;;;;;;5094266;28;20389;-69
2023/08/28 07:06:11;;;;;;;;;;;19.20;95.00;;;;;;5105554;27;19911;-69
2023/08/28 07:08:37;;;;;;;;;;;19.20;95.30;;;;;;5091887;28;19911;-72
2023/08/28 07:11:04;;;;;;;;;;;19.20;95.80;;;;;;5098786;28;19912;-66
2023/08/28 07:13:31;;;;;;;;;;;19.00;96.50;;;;;;5100817;28;20400;-66
2023/08/28 07:16:00;;;;;;;;;;;18.90;96.80;;;;;;5096354;28;19915;-69
2023/08/28 07:18:27;;;;;;;;;;;18.90;97.30;;;;;;5098358;28;20073;-67
2023/08/28 07:20:54;;;;;;;;;;;18.70;97.90;;;;;;5098221;28;19959;-68
2023/08/28 07:23:21;;;;;;;;;;;18.70;98.40;;;;;;5074945;28;20012;-69
2023/08/28 07:25:48;;;;;;;;;;;18.60;98.80;;;;;;5100505;28;19923;-66
2023/08/28 07:28:14;;;;;;;;;;;18.60;99.20;;;;;;5107840;28;19933;-68
2023/08/28 07:30:42;;;;;;;;;;;18.50;99.60;;;;;;5094915;28;19994;-66
2023/08/28 07:33:09;;;;;;;;;;;18.40;99.90;;;;;;5097343;28;19912;-67
2023/08/28 07:35:36;;;;;;;;;;;18.20;99.90;;;;;;5100564;28;19908;-67
2023/08/28 07:38:06;;;;;;;;;;;18.10;99.90;;;;;;5081986;27;20365;-69
2023/08/28 07:40:34;;;;;;;;;;;18.00;99.90;;;;;;5100521;27;19973;-68
2023/08/28 07:43:01;;;;;;;;;;;18.00;99.90;;;;;;5096577;27;19994;-69
2023/08/28 07:45:29;;;;;;;;;;;18.00;99.90;;;;;;5101810;28;19938;-67
2023/08/28 07:47:56;;;;;;;;;;;17.90;99.90;;;;;;5101060;28;19920;-68
2023/08/28 07:50:23;;;;;;;;;;;17.90;99.90;;;;;;5094500;28;19948;-71
2023/08/28 07:52:54;;;;;;;;;;;17.90;99.90;;;;;;5095735;28;20365;-68
2023/08/28 07:55:20;;;;;;;;;;;17.90;99.90;;;;;;5102824;28;19970;-64
2023/08/28 07:57:47;;;;;;;;;;;17.80;99.90;;;;;;5099068;28;19959;-65
2023/08/28 08:00:16;;;;;;;;;;;17.80;99.90;;;;;;5102309;28;19916;-70
2023/08/28 08:02:42;;;;;;;;;;;17.70;99.90;;;;;;5078078;28;19924;-68
2023/08/28 08:05:12;;;;;;;;;;;17.70;99.90;;;;;;5099042;28;20292;-67
2023/08/28 08:07:41;;;;;;;;;;;17.60;99.90;;;;;;5099950;28;19911;-71
2023/08/28 08:10:09;;;;;;;;;;;17.60;99.90;;;;;;5103817;28;20284;-68
2023/08/28 08:12:36;;;;;;;;;;;17.60;99.90;;;;;;5097701;28;19961;-69
2023/08/28 08:15:03;;;;;;;;;;;17.70;99.90;;;;;;5108964;28;19939;-71
2023/08/28 08:17:30;;;;;;;;;;;17.60;99.90;;;;;;5093272;28;19919;-72
2023/08/28 08:19:57;;;;;;;;;;;17.60;99.90;;;;;;5106214;28;20360;-67
2023/08/28 08:22:24;;;;;;;;;;;17.60;99.90;;;;;;5111037;28;19920;-71
2023/08/28 08:24:51;;;;;;;;;;;17.50;99.90;;;;;;5110363;28;20328;-71
2023/08/28 08:27:18;;;;;;;;;;;17.60;99.90;;;;;;5095500;28;20731;-71
2023/08/28 08:29:45;;;;;;;;;;;17.70;99.90;;;;;;5110038;28;19908;-64
2023/08/28 08:32:12;;;;;;;;;;;17.60;99.90;;;;;;5111288;28;20388;-66
2023/08/28 08:34:38;;;;;;;;;;;17.50;99.90;;;;;;5111088;28;19907;-64
2023/08/28 08:37:05;;;;;;;;;;;17.60;99.90;;;;;;5105406;28;19912;-68
2023/08/28 08:39:31;;;;;;;;;;;17.50;99.90;;;;;;5095387;28;19912;-65
2023/08/28 08:41:58;;;;;;;;;;;17.50;99.90;;;;;;5099980;28;20759;-69
2023/08/28 08:44:25;;;;;;;;;;;17.40;99.90;;;;;;5100766;28;19915;-65
2023/08/28 08:46:52;;;;;;;;;;;17.40;99.90;;;;;;5091152;28;19920;-67
2023/08/28 08:49:24;;;;;;;;;;;17.50;99.90;;;;;;5092082;28;19912;-66
2023/08/28 08:51:52;;;;;;;;;;;17.50;99.90;;;;;;5091769;28;20383;-67
2023/08/28 08:54:24;;;;;;;;;;;17.50;99.90;;;;;;5092548;28;20009;-67
2023/08/28 08:56:54;;;;;;;;;;;17.50;99.90;;;;;;5099482;28;19907;-66
2023/08/28 08:59:21;;;;;;;;;;;17.40;99.90;;;;;;5095093;28;19915;-68
2023/08/28 09:01:48;;;;;;;;;;;17.50;99.90;;;;;;5095606;28;19923;-65
2023/08/28 09:04:15;;;;;;;;;;;17.50;99.90;;;;;;5095898;28;19916;-66
2023/08/28 09:06:42;;;;;;;;;;;17.60;99.90;;;;;;5103248;28;19912;-67
2023/08/28 09:09:11;;;;;;;;;;;17.50;99.90;;;;;;5115770;28;19912;-68
2023/08/28 09:11:40;;;;;;;;;;;17.60;99.90;;;;;;5099550;28;20359;-66
2023/08/28 09:14:06;;;;;;;;;;;17.50;99.90;;;;;;5098112;28;19958;-66
2023/08/28 09:16:34;;;;;;;;;;;17.50;99.90;;;;;;5099687;28;19915;-67
2023/08/28 09:19:02;;;;;;;;;;;17.40;99.90;;;;;;5113561;28;20343;-68
2023/08/28 09:21:33;;;;;;;;;;;17.40;99.90;;;;;;5106989;28;19923;-69
2023/08/28 09:24:00;;;;;;;;;;;17.40;99.90;;;;;;5109651;28;19920;-67
2023/08/28 09:26:26;;;;;;;;;;;17.50;99.90;;;;;;5108969;27;19915;-66
2023/08/28 09:29:00;;;;;;;;;;;17.50;99.90;;;;;;5117426;27;19923;-69
2023/08/28 09:31:33;;;;;;;;;;;17.60;99.90;;;;;;5099799;27;19958;-67
2023/08/28 09:34:00;;;;;;;;;;;17.50;99.90;;;;;;5096893;28;19916;-67
2023/08/28 09:36:27;;;;;;;;;;;17.60;99.90;;;;;;5115017;27;19919;-67
2023/08/28 09:39:06;;;;;;;;;;;17.60;99.90;;;;;;5108703;28;20298;-68
2023/08/28 09:41:40;;;;;;;;;;;17.60;99.90;;;;;;5099271;28;20284;-69
2023/08/28 09:44:07;;;;;;;;;;;17.60;99.90;;;;;;5105052;28;20244;-67
2023/08/28 09:46:35;;;;;;;;;;;17.60;99.90;;;;;;5108245;27;19964;-67
2023/08/28 09:49:02;;;;;;;;;;;17.60;99.90;;;;;;5095387;28;19908;-66
2023/08/28 09:51:40;;;;;;;;;;;17.60;99.90;;;;;;5098838;27;19970;-68
2023/08/28 09:54:06;;;;;;;;;;;17.60;99.90;;;;;;5097541;28;20007;-67
2023/08/28 09:56:33;;;;;;;;;;;17.60;99.90;;;;;;5101218;28;19926;-66
2023/08/28 09:59:03;;;;;;;;;;;17.60;99.90;;;;;;5096208;28;19916;-67
2023/08/28 10:01:32;;;;;;;;;;;17.50;99.90;;;;;;5107522;27;20275;-68
2023/08/28 10:04:01;;;;;;;;;;;17.50;99.90;;;;;;5105504;28;19912;-66
2023/08/28 10:06:29;;;;;;;;;;;17.60;99.90;;;;;;5099577;28;19918;-66
2023/08/28 10:08:58;;;;;;;;;;;17.50;99.90;;;;;;5096725;28;20428;-66
2023/08/28 10:11:45;;;;;;;;;;;17.50;99.90;;;;;;5094851;27;19912;-67
2023/08/28 10:14:13;;;;;;;;;;;17.50;99.90;;;;;;5093454;28;19908;-67
2023/08/28 10:16:44;;;;;;;;;;;17.50;99.90;;;;;;5101204;28;19912;-67
2023/08/28 10:19:11;;;;;;;;;;;17.50;99.90;;;;;;5094967;28;19915;-69
2023/08/28 10:21:38;;;;;;;;;;;17.40;99.90;;;;;;5098654;28;19931;-67
2023/08/28 10:24:05;;;;;;;;;;;17.40;99.90;;;;;;5108444;28;19964;-68
2023/08/28 10:26:33;;;;;;;;;;;17.40;99.90;;;;;;5107635;27;19919;-68
2023/08/28 10:29:00;;;;;;;;;;;17.40;99.90;;;;;;5111356;28;20292;-64
2023/08/28 10:31:29;;;;;;;;;;;17.40;99.90;;;;;;5109272;28;20277;-66
2023/08/28 10:33:56;;;;;;;;;;;17.40;99.90;;;;;;5111164;28;19912;-67
2023/08/28 10:36:23;;;;;;;;;;;17.30;99.90;;;;;;5110930;28;19992;-69
2023/08/28 10:38:52;;;;;;;;;;;17.30;99.90;;;;;;5109010;28;20296;-65
2023/08/28 10:41:20;;;;;;;;;;;17.30;99.90;;;;;;5109710;28;20441;-66
2023/08/28 10:43:48;;;;;;;;;;;17.30;99.90;;;;;;5099043;28;19915;-68
2023/08/28 10:46:15;;;;;;;;;;;17.30;99.90;;;;;;5097323;28;20049;-70
2023/08/28 10:48:42;;;;;;;;;;;17.30;99.90;;;;;;5109462;28;20009;-66
2023/08/28 10:51:12;;;;;;;;;;;17.40;99.90;;;;;;5105176;28;19908;-66
2023/08/28 10:53:39;;;;;;;;;;;17.30;99.90;;;;;;5091120;28;19920;-68
2023/08/28 10:56:05;;;;;;;;;;;17.30;99.90;;;;;;5111284;28;20322;-66
2023/08/28 10:58:36;;;;;;;;;;;17.40;99.90;;;;;;5111100;28;19914;-66
2023/08/28 11:01:16;;;;;;;;;;;17.20;99.90;;;;;;5111508;28;19973;-67
2023/08/28 11:03:53;;;;;;;;;;;17.20;99.90;;;;;;5107637;28;20002;-66
2023/08/28 11:06:40;;;;;;;;;;;17.20;99.90;;;;;;5107046;28;19908;-66
2023/08/28 11:09:25;;;;;;;;;;;17.20;99.90;;;;;;5106389;28;19911;-67
2023/08/28 11:11:51;;;;;;;;;;;17.20;99.90;;;;;;5113982;27;19908;-71
2023/08/28 11:14:18;;;;;;;;;;;17.20;99.90;;;;;;5110559;28;19911;-65
2023/08/28 11:16:45;;;;;;;;;;;17.10;99.90;;;;;;5108696;28;20292;-66
2023/08/28 11:19:11;;;;;;;;;;;17.20;99.90;;;;;;5107217;28;19919;-64
2023/08/28 11:21:44;;;;;;;;;;;17.10;99.90;;;;;;5111349;28;19939;-66
2023/08/28 11:24:23;;;;;;;;;;;17.10;99.90;;;;;;5111541;28;19908;-68
2023/08/28 11:26:50;;;;;;;;;;;17.10;99.90;;;;;;5111290;28;20355;-69
2023/08/28 11:29:26;;;;;;;;;;;17.00;99.90;;;;;;5113045;28;19908;-66
2023/08/28 11:31:53;;;;;;;;;;;17.10;99.90;;;;;;5112666;28;19907;-67
2023/08/28 11:34:20;;;;;;;;;;;17.10;99.90;;;;;;5112963;28;19915;-65
2023/08/28 11:36:46;;;;;;;;;;;17.10;99.90;;;;;;5113335;28;19912;-66
2023/08/28 11:39:23;;;;;;;;;;;17.10;99.90;;;;;;5113316;28;19999;-65
2023/08/28 11:41:53;;;;;;;;;;;17.10;99.90;;;;;;5112801;28;19960;-66
2023/08/28 11:44:20;;;;;;;;;;;17.10;99.90;;;;;;5108824;28;19923;-64
2023/08/28 11:46:47;;;;;;;;;;;17.00;99.90;;;;;;5092130;28;20364;-72
2023/08/28 11:49:13;;;;;;;;;;;17.10;99.90;;;;;;5092735;28;19961;-66
2023/08/28 11:51:40;;;;;;;;;;;16.90;99.90;;;;;;5092377;28;19916;-67
2023/08/28 11:54:07;;;;;;;;;;;16.90;99.90;;;;;;5099555;28;19912;-69
2023/08/28 11:56:34;;;;;;;;;;;16.90;99.90;;;;;;5112889;28;19908;-68
2023/08/28 11:59:00;;;;;;;;;;;16.90;99.90;;;;;;5094583;28;19938;-69
2023/08/28 12:01:30;;;;;;;;;;;16.80;99.90;;;;;;5112822;28;19926;-67
2023/08/28 12:04:00;;;;;;;;;;;16.80;99.90;;;;;;5112732;28;20013;-65
2023/08/28 12:06:29;;;;;;;;;;;16.80;99.90;;;;;;5112555;28;19933;-66
2023/08/28 12:08:55;;;;;;;;;;;16.60;99.90;;;;;;5112922;28;19918;-67
2023/08/28 12:11:22;;;;;;;;;;;16.60;99.90;;;;;;5111450;28;19915;-67
2023/08/28 12:13:49;;;;;;;;;;;16.50;99.90;;;;;;5092136;28;20413;-66
2023/08/28 12:16:19;;;;;;;;;;;16.40;99.90;;;;;;5091715;28;20376;-66
2023/08/28 12:18:46;;;;;;;;;;;16.40;99.90;;;;;;5092216;28;20306;-68
2023/08/28 12:21:13;;;;;;;;;;;16.30;99.90;;;;;;5092620;28;19923;-67
2023/08/28 12:23:55;;;;;;;;;;;16.30;99.90;;;;;;5092571;28;19912;-68
2023/08/28 12:26:25;;;;;;;;;;;16.20;99.90;;;;;;5092471;28;19908;-65
2023/08/28 12:28:53;;;;;;;;;;;16.30;99.90;;;;;;5092452;28;19943;-64
2023/08/28 12:31:31;;;;;;;;;;;16.30;99.90;;;;;;5092433;28;19909;-66
2023/08/28 12:33:58;;;;;;;;;;;16.30;99.90;;;;;;5095838;28;19960;-67
2023/08/28 12:36:47;;;;;;;;;;;16.30;99.90;;;;;;5096257;28;19931;-67
2023/08/28 12:39:19;;;;;;;;;;;16.30;99.90;;;;;;5096165;28;19919;-67
2023/08/28 12:41:54;;;;;;;;;;;16.20;99.90;;;;;;5103292;28;19966;-67
2023/08/28 12:44:21;;;;;;;;;;;16.10;99.90;;;;;;5116710;28;19908;-68
2023/08/28 12:46:49;;;;;;;;;;;16.00;99.90;;;;;;5115715;28;19920;-66
2023/08/28 12:49:19;;;;;;;;;;;16.00;99.90;;;;;;5116499;28;19908;-67
2023/08/28 12:51:47;;;;;;;;;;;15.90;99.90;;;;;;5116244;28;20321;-68
2023/08/28 12:54:16;;;;;;;;;;;15.90;99.90;;;;;;5116359;28;19914;-66
2023/08/28 12:56:42;;;;;;;;;;;15.80;99.90;;;;;;5116003;28;19991;-68
2023/08/28 12:59:09;;;;;;;;;;;15.80;99.90;;;;;;5115801;28;20007;-65
2023/08/28 13:01:35;;;;;;;;;;;15.70;99.90;;;;;;5116330;28;19916;-65
2023/08/28 13:04:03;;;;;;;;;;;15.70;99.90;;;;;;5116523;28;19953;-65
2023/08/28 13:06:30;;;;;;;;;;;15.60;99.90;;;;;;5115502;28;19912;-66
2023/08/28 13:08:56;;;;;;;;;;;15.50;99.90;;;;;;5115769;28;20356;-66
2023/08/28 13:11:23;;;;;;;;;;;15.50;99.90;;;;;;5116120;28;19990;-65
2023/08/28 13:13:50;;;;;;;;;;;15.50;99.90;;;;;;5116092;28;20000;-66
2023/08/28 13:16:17;;;;;;;;;;;15.40;99.90;;;;;;5113962;28;19919;-66
2023/08/28 13:18:44;;;;;;;;;;;15.40;99.90;;;;;;5115419;28;19937;-65
2023/08/28 13:21:10;;;;;;;;;;;15.40;99.90;;;;;;5097850;28;19912;-69
2023/08/28 13:23:37;;;;;;;;;;;15.30;99.90;;;;;;5115631;28;20293;-65
2023/08/28 13:26:04;;;;;;;;;;;15.30;99.90;;;;;;5115872;28;19957;-67
2023/08/28 13:28:30;;;;;;;;;;;15.30;99.90;;;;;;5100199;28;19912;-66
2023/08/28 13:30:57;;;;;;;;;;;15.30;99.90;;;;;;5095585;28;19908;-65
2023/08/28 13:33:25;;;;;;;;;;;15.20;99.90;;;;;;5104377;28;19912;-63
2023/08/28 13:35:52;;;;;;;;;;;15.10;99.90;;;;;;5100472;28;19943;-66
2023/08/28 13:38:19;;;;;;;;;;;15.10;99.90;;;;;;5115123;28;20376;-68
2023/08/28 13:40:45;;;;;;;;;;;15.10;99.90;;;;;;5115622;28;19922;-65
2023/08/28 13:43:12;;;;;;;;;;;15.00;99.90;;;;;;5115213;28;19930;-65
2023/08/28 13:45:39;;;;;;;;;;;15.00;99.90;;;;;;5105312;28;19987;-65
2023/08/28 13:48:05;;;;;;;;;;;14.90;99.90;;;;;;5095009;28;19915;-66
2023/08/28 13:50:32;;;;;;;;;;;14.90;99.90;;;;;;5095085;28;19915;-64
2023/08/28 13:52:59;;;;;;;;;;;14.80;99.90;;;;;;5094712;28;20319;-67
2023/08/28 13:55:26;;;;;;;;;;;14.80;99.90;;;;;;5110011;28;20433;-66
2023/08/28 13:57:52;;;;;;;;;;;14.70;99.90;;;;;;5115326;28;19951;-65
2023/08/28 14:00:20;;;;;;;;;;;14.70;99.90;;;;;;5115086;28;19907;-65
2023/08/28 14:02:47;;;;;;;;;;;14.60;99.90;;;;;;5115107;28;19919;-66
2023/08/28 14:05:13;;;;;;;;;;;14.70;99.90;;;;;;5115360;28;19947;-64
2023/08/28 14:07:41;;;;;;;;;;;14.60;99.90;;;;;;5096888;28;19908;-66
2023/08/28 14:10:08;;;;;;;;;;;14.60;99.90;;;;;;5114720;28;19908;-66
2023/08/28 14:12:35;;;;;;;;;;;14.50;99.90;;;;;;5115033;28;19908;-66
2023/08/28 14:15:03;;;;;;;;;;;14.50;99.90;;;;;;5110911;28;19964;-64
2023/08/28 14:17:30;;;;;;;;;;;14.50;99.90;;;;;;5101915;28;19919;-67
2023/08/28 14:19:57;;;;;;;;;;;14.50;99.90;;;;;;5114522;28;20296;-66